Flight Track Log - Related Links

Times and Time Zones

All times are in EDT time to prevent confusion due to time zone crossing. See the UAL907 flight status page for this flight to view local times or setup timezone preferences in your user account.

Time Position Orientation Groundspeed Altitude Reporting Facility
EDT Latitude Longitude Course Direction KTS MPH feet Rate Location/Type
Wed 07:43:55 PM 41.9790 -87.9210 320° Northwest 130 150  Level FlightAware ADS-B
Wed 07:44:15 PM 41.9910 -87.9330 323° Northwest 169 194 900 2,667 Climbing FlightAware ADS-B
Wed 07:44:31 PM 42.0010 -87.9430 323° Northwest 168 193 1,600 2,455 Climbing FlightAware ADS-B
Wed 07:44:37 PM 42.0060 -87.9440 352° North 175 201 1,800 1,500 Climbing FlightAware ADS-B
Wed 07:45:07 PM 42.0290 -87.9290 26° Northeast 219 252 2,500 1,404 Climbing FlightAware ADS-B
Wed 07:45:24 PM 42.0430 -87.9130 40° Northeast 235 270 2,900 1,784 Climbing FlightAware ADS-B
Wed 07:45:44 PM 42.0600 -87.8950 38° Northeast 246 283 3,600 2,286 Climbing FlightAware ADS-B
Wed 07:46:06 PM 42.0790 -87.8710 43° Northeast 249 287 4,500 2,000 Climbing FlightAware ADS-B
Wed 07:46:20 PM 42.0910 -87.8550 45° Northeast 263 303 4,800 1,000 Climbing FlightAware ADS-B
Wed 07:46:36 PM 42.1050 -87.8380 42° Northeast 268 308 5,000 1,535 Climbing FlightAware ADS-B
Wed 07:47:03 PM 42.1300 -87.8070 43° Northeast 264 304 5,900 2,160 Climbing FlightAware ADS-B
Wed 07:47:26 PM 42.1500 -87.7820 43° Northeast 267 307 6,800 2,400 Climbing FlightAware ADS-B
Wed 07:47:48 PM 42.1720 -87.7560 41° Northeast 274 315 7,700 2,195 Climbing FlightAware ADS-B
Wed 07:48:07 PM 42.1890 -87.7320 46° Northeast 289 333 8,300 1,929 Climbing FlightAware ADS-B
Wed 07:48:16 PM 42.1950 -87.7200 56° Northeast 293 337 8,600 2,000 Climbing FlightAware ADS-B
Wed 07:48:19 PM 42.1970 -87.7130 69° East 295 339 8,700 2,500 Climbing FlightAware ADS-B
Wed 07:48:28 PM 42.2000 -87.6980 75° East 297 342 9,100 2,276 Climbing FlightAware ADS-B
Wed 07:48:48 PM 42.2040 -87.6600 82° East 302 348 9,800 2,073 Climbing FlightAware ADS-B
Wed 07:49:23 PM 42.2110 -87.5960 82° East 312 359 11,000 1,500 Climbing FlightAware ADS-B
Wed 07:50:00 PM 42.2210 -87.5190 80° East 345 397 11,600 1,000 Climbing FlightAware ADS-B
Wed 07:50:35 PM 42.2310 -87.4420 80° East 375 432 12,200 1,059 Climbing FlightAware ADS-B
Wed 07:51:08 PM 42.2410 -87.3640 80° East 398 458 12,800 1,629 Climbing FlightAware ADS-B
Wed 07:51:45 PM 42.2530 -87.2740 80° East 406 467 14,100 2,057 Climbing FlightAware ADS-B
Wed 07:52:18 PM 42.2640 -87.1890 80° East 412 474 15,200 1,800 Climbing FlightAware ADS-B
Wed 07:52:55 PM 42.2750 -87.0980 81° East 420 483 16,200 1,765 Climbing FlightAware ADS-B
Wed 07:53:26 PM 42.2810 -87.0140 84° East 429 494 17,200 1,701 Climbing FlightAware ADS-B
Wed 07:54:02 PM 42.2860 -86.9140 86° East 439 505 18,100 1,297 Climbing FlightAware ADS-B
Wed 07:54:40 PM 42.2900 -86.8080 87° East 456 525 18,800 1,360 Climbing FlightAware ADS-B
Wed 07:55:17 PM 42.2940 -86.7040 87° East 461 531 19,800 1,500 Climbing FlightAware ADS-B
Wed 07:55:48 PM 42.2970 -86.6160 87° East 466 536 20,500 1,385 Climbing FlightAware ADS-B
Wed 07:56:22 PM 42.3010 -86.5120 87° East 473 544 21,300 1,412 Climbing FlightAware ADS-B
Wed 07:56:56 PM 42.3050 -86.4120 87° East 480 552 22,100 1,352 Climbing FlightAware ADS-B
Wed 07:57:33 PM 42.3090 -86.3010 87° East 488 562 22,900 1,315 Climbing FlightAware ADS-B
Wed 07:58:09 PM 42.3120 -86.1920 88° East 495 570 23,700 1,250 Climbing FlightAware ADS-B
Wed 07:58:45 PM 42.3150 -86.0810 88° East 503 579 24,400 1,200 Climbing FlightAware ADS-B
Wed 07:59:19 PM 42.3140 -85.9790 91° East 508 585 25,100 1,304 Climbing FlightAware ADS-B
Wed 07:59:54 PM 42.3130 -85.8600 91° East 513 590 25,900 1,280 Climbing FlightAware ADS-B
Wed 08:00:34 PM 42.3110 -85.7300 91° East 519 597 26,700 1,280 Climbing FlightAware ADS-B
Wed 08:01:09 PM 42.3100 -85.6170 91° East 522 601 27,500 1,280 Climbing FlightAware ADS-B
Wed 08:01:49 PM 42.3080 -85.4900 91° East 526 605 28,300 1,114 Climbing FlightAware ADS-B
Wed 08:02:19 PM 42.3070 -85.4060 91° East 529 609 28,800 1,091 Climbing FlightAware ADS-B
Wed 08:02:55 PM 42.3040 -85.2630 92° East 534 615 29,500 1,135 Climbing FlightAware ADS-B
Wed 08:03:33 PM 42.3020 -85.1380 91° East 538 619 30,200 1,000 Climbing FlightAware ADS-B
Wed 08:04:13 PM 42.2990 -85.0020 92° East 543 625 30,800 917 Climbing FlightAware ADS-B
Wed 08:04:45 PM 42.2970 -84.8940 91° East 545 627 31,300 1,333 Climbing FlightAware ADS-B
Wed 08:05:25 PM 42.2930 -84.7610 92° East 537 618 32,400 1,378 Climbing FlightAware ADS-B
Wed 08:05:59 PM 42.2910 -84.6540 91° East 536 617 33,000 545 Climbing FlightAware ADS-B
Wed 08:06:31 PM 42.2880 -84.5430 92° East 534 615 33,000  Level FlightAware ADS-B
Wed 08:07:04 PM 42.2930 -84.4370 86° East 537 618 33,000  Level FlightAware ADS-B
Wed 08:07:43 PM 42.3100 -84.3000 80° East 539 620 33,000 560 Level FlightAware ADS-B
Wed 08:08:19 PM 42.3260 -84.1860 79° East 536 617 33,700 1,167 Climbing FlightAware ADS-B
Wed 08:08:55 PM 42.3440 -84.0620 79° East 534 615 34,400 1,000 Climbing FlightAware ADS-B
Wed 08:09:31 PM 42.3610 -83.9460 79° East 533 613 34,900 529 Climbing FlightAware ADS-B
Wed 08:10:03 PM 42.3750 -83.8430 80° East 533 613 35,000 88 Climbing FlightAware ADS-B
Wed 08:10:39 PM 42.3910 -83.7220 80° East 533 613 35,000  Level FlightAware ADS-B
Wed 08:11:15 PM 42.4130 -83.6110 75° East 531 611 35,000  Level FlightAware ADS-B
Wed 08:11:51 PM 42.4610 -83.5070 58° Northeast 527 606 35,000  Level FlightAware ADS-B
Wed 08:12:21 PM 42.5070 -83.4310 51° Northeast 528 608 35,000  Level FlightAware ADS-B
Wed 08:13:00 PM 42.5630 -83.3390 50° Northeast 526 605 35,000  Level FlightAware ADS-B
Wed 08:13:33 PM 42.6180 -83.2480 51° Northeast 527 606 35,000  Level FlightAware ADS-B
Wed 08:14:10 PM 42.6740 -83.1540 51° Northeast 527 606 35,000  Level FlightAware ADS-B
Wed 08:14:41 PM 42.7150 -83.0690 57° Northeast 528 608 35,000  Level FlightAware ADS-B
Wed 08:15:21 PM 42.7620 -82.9560 60° Northeast 529 609 35,000  Level FlightAware ADS-B
Wed 08:15:53 PM 42.8010 -82.8570 62° Northeast 529 609 35,000  Level FlightAware ADS-B
Wed 08:16:25 PM 42.8370 -82.7670 61° Northeast 529 609 35,000  Level FlightAware ADS-B
Wed 08:17:01 PM 42.8800 -82.6590 61° Northeast 528 608 35,000  Level FlightAware ADS-B
Wed 08:17:37 PM 42.9220 -82.5560 61° Northeast 529 609 35,000  Level FlightAware ADS-B
Wed 08:18:11 PM 42.9600 -82.4650 60° Northeast 530 610 35,000  Level FlightAware ADS-B
Wed 08:18:47 PM 43.0030 -82.3620 60° Northeast 530 610 35,000  Level FlightAware ADS-B
Wed 08:19:25 PM 43.0480 -82.2470 62° Northeast 530 610 35,000  Level FlightAware ADS-B
Wed 08:19:59 PM 43.0820 -82.1430 66° East 530 610 35,000  Level FlightAware ADS-B
Wed 08:20:29 PM 43.1150 -82.0560 63° Northeast 529 609 35,000  Level FlightAware ADS-B
Wed 08:21:07 PM 43.1710 -81.9460 55° Northeast 526 605 35,000  Level FlightAware ADS-B
Wed 08:21:42 PM 43.2180 -81.8670 51° Northeast 526 605 35,000  Level FlightAware ADS-B
Wed 08:22:18 PM 43.2710 -81.7770 51° Northeast 525 604 35,000  Level FlightAware ADS-B
Wed 08:22:52 PM 43.3320 -81.6710 52° Northeast 525 604 35,000  Level FlightAware ADS-B
Wed 08:23:30 PM 43.3890 -81.5720 52° Northeast 526 605 35,000  Level FlightAware ADS-B
Wed 08:24:05 PM 43.4400 -81.4810 52° Northeast 526 605 35,000  Level FlightAware ADS-B
Wed 08:24:59 PM 43.5170 -81.3450 52° Northeast 526 605 35,000  Level FlightAware ADS-B
Wed 08:25:33 PM 43.5720 -81.2490 52° Northeast 525 604 35,000  Level FlightAware ADS-B
Wed 08:26:10 PM 43.6190 -81.1630 53° Northeast 526 605 35,000  Level FlightAware ADS-B
Wed 08:26:45 PM 43.6720 -81.0660 53° Northeast 525 604 35,000  Level FlightAware ADS-B
Wed 08:27:20 PM 43.7270 -80.9710 51° Northeast 523 602 35,000  Level FlightAware ADS-B
Wed 08:27:55 PM 43.7820 -80.8830 49° Northeast 519 597 35,000  Level FlightAware ADS-B
Wed 08:28:30 PM 43.8420 -80.8070 42° Northeast 518 596 35,000  Level FlightAware ADS-B
Wed 08:29:05 PM 43.9050 -80.7250 43° Northeast 518 596 35,000  Level FlightAware ADS-B
Wed 08:29:40 PM 43.9680 -80.6500 41° Northeast 515 593 35,000  Level FlightAware ADS-B
Wed 08:30:15 PM 44.0370 -80.5880 33° Northeast 514 592 35,000  Level FlightAware ADS-B
Wed 08:30:50 PM 44.1090 -80.5240 33° Northeast 514 592 35,000  Level FlightAware ADS-B
Wed 08:31:25 PM 44.1770 -80.4640 32° Northeast 514 592 35,000  Level FlightAware ADS-B
Wed 08:32:00 PM 44.2490 -80.4000 32° Northeast 515 593 35,000  Level FlightAware ADS-B
Wed 08:32:35 PM 44.3170 -80.3400 32° Northeast 516 594 35,000  Level FlightAware ADS-B
Wed 08:33:10 PM 44.3870 -80.2780 32° Northeast 516 594 35,000  Level FlightAware ADS-B
Wed 08:33:45 PM 44.4590 -80.2100 34° Northeast 517 595 35,000  Level FlightAware ADS-B
Wed 08:34:20 PM 44.5250 -80.1380 38° Northeast 521 600 35,000  Level FlightAware ADS-B
Wed 08:34:55 PM 44.5850 -80.0560 44° Northeast 523 602 35,000  Level FlightAware ADS-B
Wed 08:35:30 PM 44.6440 -79.9750 44° Northeast 523 602 35,000  Level FlightAware ADS-B
Wed 08:36:05 PM 44.7080 -79.8930 42° Northeast 524 603 35,000  Level FlightAware ADS-B
Wed 08:36:35 PM 44.7640 -79.8290 39° Northeast 524 603 35,000  Level FlightAware ADS-B
Wed 08:37:15 PM 44.8440 -79.7490 35° Northeast 524 603 35,000 160 Level FlightAware ADS-B
Wed 08:37:50 PM 44.9150 -79.6830 33° Northeast 527 606 35,200 514 Climbing FlightAware ADS-B
Wed 08:38:25 PM 44.9840 -79.6180 34° Northeast 527 606 35,600 686 Climbing FlightAware ADS-B
Wed 08:39:00 PM 45.0560 -79.5490 34° Northeast 525 604 36,000 943 Climbing FlightAware ADS-B
Wed 08:39:35 PM 45.1250 -79.4820 34° Northeast 520 598 36,700 686 Climbing FlightAware ADS-B
Wed 08:40:10 PM 45.1860 -79.3990 44° Northeast 527 606 36,800 171 Climbing FlightAware ADS-B
Wed 08:40:45 PM 45.2350 -79.3000 55° Northeast 533 613 36,900 171 Climbing FlightAware ADS-B
Wed 08:41:20 PM 45.2770 -79.1940 61° Northeast 533 613 37,000 86 Climbing FlightAware ADS-B
Wed 08:41:55 PM 45.3180 -79.0850 62° Northeast 532 612 37,000  Level FlightAware ADS-B
Wed 08:42:32 PM 45.3630 -78.9590 63° Northeast 532 612 37,000  Level FlightAware ADS-B
Wed 08:43:08 PM 45.4020 -78.8460 64° Northeast 531 611 37,000  Level FlightAware ADS-B
Wed 08:43:40 PM 45.4370 -78.7480 63° Northeast 529 609 37,000  Level FlightAware ADS-B
Wed 08:44:16 PM 45.4750 -78.6360 64° Northeast 529 609 37,000  Level FlightAware ADS-B
Wed 08:44:52 PM 45.5140 -78.5230 64° Northeast 527 606 37,000  Level FlightAware ADS-B
Wed 08:45:28 PM 45.5520 -78.4110 64° Northeast 527 606 37,000  Level FlightAware ADS-B
Wed 08:46:00 PM 45.5860 -78.3100 64° Northeast 526 605 37,000  Level FlightAware ADS-B
Wed 08:46:36 PM 45.6240 -78.1980 64° Northeast 525 604 37,000  Level FlightAware ADS-B
Wed 08:47:12 PM 45.6610 -78.0870 64° Northeast 525 604 37,000  Level FlightAware ADS-B
Wed 08:47:45 PM 45.6950 -77.9860 64° Northeast 523 602 37,000  Level FlightAware ADS-B
Wed 08:48:22 PM 45.7340 -77.8690 64° Northeast 522 601 37,000  Level FlightAware ADS-B
Wed 08:48:58 PM 45.7710 -77.7560 65° Northeast 521 600 37,000  Level FlightAware ADS-B
Wed 08:49:27 PM 45.8010 -77.6680 64° Northeast 520 598 37,000  Level FlightAware ADS-B
Wed 08:50:00 PM 45.8350 -77.5650 65° Northeast 519 597 37,000  Level FlightAware ADS-B
Wed 08:50:40 PM 45.8720 -77.4520 65° Northeast 519 597 37,000  Level FlightAware ADS-B
Wed 08:51:20 PM 45.9140 -77.3240 65° Northeast 518 596 37,000  Level FlightAware ADS-B
Wed 08:52:05 PM 45.9560 -77.1940 65° Northeast 519 597 37,000  Level FlightAware ADS-B
Wed 08:52:40 PM 45.9940 -77.0750 65° Northeast 518 596 37,000  Level FlightAware ADS-B
Wed 08:53:15 PM 46.0280 -76.9700 65° Northeast 517 595 37,000  Level FlightAware ADS-B
Wed 08:53:45 PM 46.0590 -76.8740 65° Northeast 517 595 37,000  Level FlightAware ADS-B
Wed 08:54:20 PM 46.0940 -76.7640 65° Northeast 518 596 37,000  Level FlightAware ADS-B
Wed 08:54:55 PM 46.1270 -76.6610 65° Northeast 518 596 37,000  Level FlightAware ADS-B
Wed 08:55:31 PM 46.1630 -76.5470 65° Northeast 517 595 37,000  Level FlightAware ADS-B
Wed 08:56:06 PM 46.2010 -76.4260 66° East 516 594 37,000  Level FlightAware ADS-B
Wed 08:56:46 PM 46.2420 -76.2990 65° Northeast 516 594 37,000  Level FlightAware ADS-B
Wed 08:57:21 PM 46.2750 -76.1930 66° East 515 593 37,000  Level FlightAware ADS-B
Wed 08:57:51 PM 46.3050 -76.0970 66° East 516 594 37,000  Level FlightAware ADS-B
Wed 08:58:24 PM 46.3300 -76.0170 66° East 515 593 37,000  Level FlightAware ADS-B
Wed 08:59:02 PM 46.3590 -75.9230 66° East 515 593 37,000  Level FlightAware ADS-B
Wed 08:59:39 PM 46.3970 -75.7970 66° East 516 594 37,000  Level FlightAware ADS-B
Wed 08:59:56 PM 46.4110 -75.7530 65° Northeast 517 595 37,000  Level FlightAware ADS-B
Wed 09:01:07 PM 46.4940 -75.4800 66° East 522 601 37,000  Level FlightAware ADS-B
Wed 09:01:46 PM 46.5320 -75.3540 66° East 523 602 37,000  Level FlightAware ADS-B
Wed 09:02:21 PM 46.5670 -75.2380 66° East 523 602 37,000  Level FlightAware ADS-B
Wed 09:02:56 PM 46.6010 -75.1250 66° East 525 604 37,000  Level FlightAware ADS-B
Wed 09:03:21 PM 46.6250 -75.0460 66° East 525 604 37,000  Level FlightAware ADS-B
Wed 09:04:35 PM 46.6940 -74.8130 67° East 525 604 37,000  Level FlightAware ADS-B
Wed 09:05:08 PM 46.7270 -74.7000 67° East 525 604 37,000  Level FlightAware ADS-B
Wed 09:05:43 PM 46.7610 -74.5860 66° East 522 601 37,000  Level FlightAware ADS-B
Wed 09:06:17 PM 46.7930 -74.4770 67° East 520 598 37,000  Level FlightAware ADS-B
Wed 09:07:00 PM 46.8330 -74.3370 67° East 520 598 37,000  Level FlightAware ADS-B
Wed 09:07:35 PM 46.8660 -74.2230 67° East 520 598 37,000  Level FlightAware ADS-B
Wed 09:08:10 PM 46.8990 -74.1080 67° East 519 597 37,000  Level FlightAware ADS-B
Wed 09:08:45 PM 46.9310 -73.9970 67° East 519 597 37,000  Level FlightAware ADS-B
Wed 09:09:20 PM 46.9640 -73.8830 67° East 518 596 37,000  Level FlightAware ADS-B
Wed 09:09:55 PM 46.9960 -73.7670 68° East 518 596 37,000  Level FlightAware ADS-B
Wed 09:10:30 PM 47.0290 -73.6530 67° East 520 598 37,000  Level FlightAware ADS-B
Wed 09:11:01 PM 47.0560 -73.5560 68° East 520 598 37,000  Level FlightAware ADS-B
Wed 09:11:47 PM 47.0920 -73.4260 68° East 518 596 37,000  Level FlightAware ADS-B
Wed 09:12:25 PM 47.1340 -73.2750 68° East 518 596 37,000  Level FlightAware ADS-B
Wed 09:13:11 PM 47.1570 -73.1910 68° East 517 595 37,000  Level FlightAware ADS-B
Wed 09:13:47 PM 47.2070 -73.0090 68° East 516 594 37,000  Level FlightAware ADS-B
Wed 09:14:21 PM 47.2370 -72.9030 67° East 516 594 37,000  Level FlightAware ADS-B
Wed 09:14:56 PM 47.2670 -72.7920 68° East 515 593 37,000  Level FlightAware ADS-B
Wed 09:15:31 PM 47.2980 -72.6780 68° East 516 594 37,000  Level FlightAware ADS-B
Wed 09:16:11 PM 47.3330 -72.5480 68° East 517 595 37,000  Level FlightAware ADS-B
Wed 09:16:41 PM 47.3600 -72.4470 68° East 517 595 37,000  Level FlightAware ADS-B
Wed 09:17:26 PM 47.3970 -72.3090 68° East 517 595 37,000  Level FlightAware ADS-B
Wed 09:18:04 PM 47.4290 -72.1900 68° East 517 595 37,000  Level FlightAware ADS-B
Wed 09:18:41 PM 47.4640 -72.0540 69° East 515 593 37,000  Level FlightAware ADS-B
Wed 09:19:16 PM 47.4920 -71.9480 69° East 515 593 37,000  Level FlightAware ADS-B
Wed 09:19:52 PM 47.5150 -71.8600 69° East 516 594 37,000  Level FlightAware ADS-B
Wed 09:20:23 PM 47.5450 -71.7480 68° East 516 594 37,000  Level FlightAware ADS-B
Wed 09:21:01 PM 47.5830 -71.5980 69° East 515 593 37,000  Level FlightAware ADS-B
Wed 09:21:46 PM 47.6220 -71.4450 69° East 515 593 37,000  Level FlightAware ADS-B
Wed 09:22:21 PM 47.6530 -71.3270 69° East 514 592 37,000  Level FlightAware ADS-B
Wed 09:22:31 PM 47.6600 -71.2980 70° East 514 592 37,000  Level FlightAware ADS-B
Wed 09:23:31 PM 47.7110 -71.0990 69° East 514 592 37,000  Level FlightAware ADS-B
Wed 09:24:06 PM 47.7390 -70.9860 70° East 515 593 37,000  Level FlightAware ADS-B
Wed 09:24:41 PM 47.7670 -70.8730 70° East 514 592 37,000  Level FlightAware ADS-B
Wed 09:25:16 PM 47.7970 -70.7520 70° East 513 590 37,000  Level FlightAware ADS-B
Wed 09:25:51 PM 47.8260 -70.6380 69° East 511 588 37,000  Level FlightAware ADS-B
Wed 09:26:21 PM 47.8480 -70.5460 70° East 510 587 37,000  Level FlightAware ADS-B
Wed 09:27:01 PM 47.8820 -70.4090 70° East 508 585 37,000  Level FlightAware ADS-B
Wed 09:27:36 PM 47.9090 -70.3000 70° East 507 583 37,000  Level FlightAware ADS-B
Wed 09:28:11 PM 47.9360 -70.1880 70° East 506 582 37,000  Level FlightAware ADS-B
Wed 09:28:41 PM 47.9600 -70.0890 70° East 507 583 37,000  Level FlightAware ADS-B
Wed 09:29:29 PM 47.9960 -69.9390 70° East 507 583 37,000  Level FlightAware ADS-B
Wed 09:30:29 PM 48.0333 -69.7333 70° East 500 575 37,000  Level Moncton Center
Wed 09:31:29 PM 48.0833 -69.5333 69° East 500 575 37,000  Level Moncton Center
Wed 09:32:29 PM 48.1333 -69.3333 69° East 500 575 37,000  Level Moncton Center
Wed 09:33:29 PM 48.1667 -69.1500 75° East 500 575 37,000  Level Moncton Center
Wed 09:34:29 PM 48.2333 -68.9667 61° Northeast 500 575 37,000  Level Moncton Center
Wed 09:35:29 PM 48.2667 -68.7500 77° East 500 575 37,000  Level Moncton Center
Wed 09:36:25 PM 48.3167 -68.5833 66° East 500 575 37,000  Level Gander Center
Wed 09:37:25 PM 48.3500 -68.3833 76° East 500 575 37,000  Level Gander Center
Wed 09:38:29 PM 48.4167 -68.1500 67° East 500 575 37,000  Level Moncton Center
Wed 09:39:29 PM 48.4667 -67.9500 69° East 500 575 37,000  Level Moncton Center
Wed 09:40:19 PM 48.5000 -67.7667 75° East 500 575 37,000  Level Montreal Center
Wed 09:40:29 PM 48.5000 -67.7667 75° East 510 587 37,000  Level Moncton Center
Wed 09:41:29 PM 48.5667 -67.5667 63° Northeast 500 575 37,000  Level Moncton Center
Wed 09:42:29 PM 48.6000 -67.3833 75° East 510 587 37,000  Level Moncton Center
Wed 09:43:29 PM 48.6500 -67.1667 71° East 510 587 37,000  Level Moncton Center
Wed 09:44:29 PM 48.7000 -66.9667 69° East 510 587 37,000  Level Moncton Center
Wed 09:45:25 PM 48.7333 -66.7667 76° East 510 587 37,000  Level Gander Center
Wed 09:46:25 PM 48.8000 -66.5667 63° Northeast 520 598 37,000  Level Gander Center
Wed 09:47:25 PM 48.8333 -66.3667 76° East 520 598 37,000  Level Gander Center
Wed 09:48:25 PM 48.8833 -66.1333 72° East 520 598 37,000  Level Gander Center
Wed 09:49:25 PM 48.9167 -65.9333 76° East 520 598 37,000  Level Gander Center
Wed 09:50:25 PM 48.9667 -65.7333 69° East 520 598 37,000  Level Gander Center
Wed 09:51:25 PM 49.0000 -65.5167 77° East 520 598 37,000  Level Gander Center
Wed 09:52:25 PM 49.0667 -65.3167 63° Northeast 520 598 37,000  Level Gander Center
Wed 09:53:25 PM 49.1000 -65.0833 78° East 520 598 37,000  Level Gander Center
Wed 09:54:25 PM 49.1500 -64.8833 69° East 520 598 37,000  Level Gander Center
Wed 09:55:25 PM 49.1833 -64.6667 77° East 510 587 37,000  Level Gander Center
Wed 09:56:25 PM 49.2167 -64.4500 77° East 510 587 37,000  Level Gander Center
Wed 09:57:25 PM 49.2667 -64.2500 69° East 510 587 37,000  Level Gander Center
Wed 09:58:25 PM 49.3167 -64.0500 69° East 520 598 37,000  Level Gander Center
Wed 09:59:25 PM 49.3500 -63.8167 78° East 510 587 37,000  Level Gander Center
Wed 10:00:25 PM 49.4000 -63.6167 69° East 510 587 37,000  Level Gander Center
Wed 10:01:25 PM 49.4333 -63.3833 78° East 520 598 37,000  Level Gander Center
Wed 10:02:25 PM 49.4667 -63.1833 76° East 520 598 37,000  Level Gander Center
Wed 10:03:25 PM 49.5000 -62.9833 76° East 510 587 37,000  Level Gander Center
Wed 10:04:25 PM 49.5500 -62.7833 69° East 510 587 37,000  Level Gander Center
Wed 10:05:25 PM 49.6000 -62.5667 70° East 510 587 37,000  Level Gander Center
Wed 10:06:29 PM 49.6167 -62.3333 84° East 510 587 37,000  Level Moncton Center
Wed 10:07:25 PM 49.6667 -62.1333 69° East 510 587 37,000  Level Gander Center
Wed 10:08:25 PM 49.7000 -61.9333 75° East 510 587 37,000  Level Gander Center
Wed 10:09:25 PM 49.7333 -61.7000 77° East 510 587 37,000  Level Gander Center
Wed 10:10:25 PM 49.7667 -61.4833 77° East 510 587 37,000  Level Gander Center
Wed 10:11:25 PM 49.8167 -61.2833 69° East 510 587 37,000  Level Gander Center
Wed 10:12:25 PM 49.8500 -61.0667 77° East 510 587 37,000  Level Gander Center
Wed 10:13:25 PM 49.8833 -60.8667 75° East 510 587 37,000  Level Gander Center
Wed 10:14:25 PM 49.9167 -60.6333 77° East 520 598 37,000  Level Gander Center
Wed 10:15:29 PM 49.9667 -60.4167 70° East 510 587 37,000  Level Moncton Center
Wed 10:16:25 PM 49.9833 -60.2167 83° East 520 598 37,000  Level Gander Center
Wed 10:17:29 PM 50.0333 -59.9667 73° East 510 587 37,000  Level Moncton Center
Wed 10:18:29 PM 50.0500 -59.7500 83° East 510 587 37,000  Level Moncton Center
Wed 10:19:25 PM 50.0833 -59.5667 74° East 510 587 37,000  Level Gander Center
Wed 10:20:25 PM 50.1167 -59.3500 76° East 510 587 37,000  Level Gander Center
Wed 10:21:25 PM 50.1667 -59.1167 71° East 510 587 37,000  Level Gander Center
Wed 10:22:25 PM 50.2167 -58.9333 67° East 510 587 37,000  Level Gander Center
Wed 10:23:25 PM 50.2500 -58.7000 77° East 520 598 37,000  Level Gander Center
Wed 10:24:10 PM 50.3000 -58.5333 65° Northeast 520 598 37,000  Level Gander Center
Wed 10:25:10 PM 50.3500 -58.3500 67° East 510 587 37,000  Level Gander Center
Wed 10:26:10 PM 50.4000 -58.1000 72° East 520 598 37,000  Level Gander Center
Wed 10:27:10 PM 50.4500 -57.9167 67° East 520 598 37,000  Level Gander Center
Wed 10:28:10 PM 50.5000 -57.7000 70° East 520 598 37,000  Level Gander Center
Wed 10:29:10 PM 50.5500 -57.5000 68° East 530 610 37,000  Level Gander Center
Wed 10:30:10 PM 50.6000 -57.2833 70° East 520 598 37,000  Level Gander Center
Wed 10:31:10 PM 50.6500 -57.0667 70° East 520 598 37,000  Level Gander Center
Wed 10:32:10 PM 50.7000 -56.8167 72° East 520 598 37,000  Level Gander Center
Wed 10:33:10 PM 50.7500 -56.6333 67° East 510 587 37,000  Level Gander Center
Wed 10:34:10 PM 50.7833 -56.4167 76° East 520 598 37,000  Level Gander Center
Wed 10:35:10 PM 50.8500 -56.2000 64° Northeast 520 598 37,000  Level Gander Center
Wed 10:36:10 PM 50.8833 -55.9833 76° East 520 598 37,000  Level Gander Center
Wed 10:37:10 PM 50.9167 -55.7667 76° East 520 598 37,000  Level Gander Center
Wed 10:38:10 PM 50.9833 -55.5333 66° East 520 598 37,000  Level Gander Center
Wed 10:39:10 PM 51.0167 -55.3167 76° East 520 598 37,000 -300 Level Gander Center
Wed 10:40:10 PM 51.0667 -55.1000 70° East 510 587 36,400 -900 Descending Gander Center
Wed 10:41:10 PM 51.1167 -54.8833 70° East 510 587 35,200 -207 Descending Gander Center
Wed 10:46:56 PM 51.3470 -53.6620 70° East 516 594 35,000 -32 Descending FlightAware ADS-B
Wed 10:47:27 PM 51.3580 -53.5520 81° East 515 593 35,000  Level FlightAware ADS-B
Wed 10:48:07 PM 51.3700 -53.4240 81° East 515 593 35,000  Level FlightAware ADS-B
Wed 10:48:43 PM 51.3800 -53.3080 82° East 515 593 35,000  Level FlightAware ADS-B
Wed 10:49:19 PM 51.3900 -53.1920 82° East 515 593 35,000  Level FlightAware ADS-B
Wed 10:49:55 PM 51.4000 -53.0770 82° East 515 593 35,000  Level FlightAware ADS-B
Wed 10:50:31 PM 51.4100 -52.9610 82° East 515 593 35,000  Level FlightAware ADS-B
Wed 10:51:07 PM 51.4200 -52.8450 82° East 515 593 35,000  Level FlightAware ADS-B
Wed 10:51:44 PM 51.4310 -52.7260 82° East 515 593 35,000  Level FlightAware ADS-B
Wed 10:52:20 PM 51.4410 -52.6100 82° East 515 593 35,000  Level FlightAware ADS-B
Wed 10:52:56 PM 51.4510 -52.4940 82° East 515 593 35,000  Level FlightAware ADS-B
Wed 10:53:32 PM 51.4610 -52.3790 82° East 515 593 35,000  Level FlightAware ADS-B
Wed 10:54:08 PM 51.4710 -52.2630 82° East 515 593 35,000  Level FlightAware ADS-B
Wed 10:54:44 PM 51.4810 -52.1470 82° East 515 593 35,000  Level FlightAware ADS-B
Wed 10:55:20 PM 51.4920 -52.0310 81° East 515 593 35,000  Level FlightAware ADS-B
Wed 10:55:57 PM 51.5020 -51.9120 82° East 515 593 35,000  Level FlightAware ADS-B
Wed 10:56:34 PM 51.5120 -51.7920 82° East 515 593 35,000  Level FlightAware ADS-B
Wed 10:57:10 PM 51.5220 -51.6760 82° East 515 593 35,000  Level FlightAware ADS-B
Wed 10:58:10 PM 51.7333 -51.0833 82° East 540 621 35,000  Level Gander Center
Wed 10:59:10 PM 51.7833 -50.8500 71° East 530 610 35,000  Level Gander Center
Wed 11:00:10 PM 51.8333 -50.6167 71° East 540 621 35,000  Level Gander Center
Wed 11:01:10 PM 51.8833 -50.4000 69° East 540 621 35,000  Level Gander Center
Wed 11:02:10 PM 51.9333 -50.1667 71° East 550 633 35,000  Level Gander Center
Wed 11:03:10 PM 51.9833 -49.9500 69° East 530 610 35,000 19 Level Gander Center
Wed 11:05:00 PM 52.0676 -49.6178 67° East  Level FlightAware Approximate
Wed 11:12:00 PM 52.4290 -48.1341 68° East  Level FlightAware Approximate
Wed 11:13:00 PM 52.4791 -47.9202 69° East  Level FlightAware Approximate
Wed 11:14:00 PM 52.5288 -47.7058 69° East  Level FlightAware Approximate
Wed 11:15:00 PM 52.5782 -47.4909 69° East  Level FlightAware Approximate
Wed 11:16:00 PM 52.6271 -47.2755 69° East  Level FlightAware Approximate
Wed 11:17:00 PM 52.6756 -47.0597 70° East  Level FlightAware Approximate
Wed 11:18:00 PM 52.7238 -46.8433 70° East  Level FlightAware Approximate
Wed 11:19:00 PM 52.7715 -46.6265 70° East  Level FlightAware Approximate
Wed 11:20:00 PM 52.8189 -46.4092 70° East  Level FlightAware Approximate
Wed 11:21:00 PM 52.8658 -46.1915 70° East  Level FlightAware Approximate
Wed 11:22:00 PM 52.9124 -45.9733 70° East  Level FlightAware Approximate
Wed 11:23:00 PM 52.9586 -45.7546 71° East  Level FlightAware Approximate
Wed 11:24:00 PM 53.0043 -45.5354 71° East  Level FlightAware Approximate
Wed 11:25:00 PM 53.0497 -45.3158 71° East  Level FlightAware Approximate
Wed 11:26:00 PM 53.0946 -45.0957 71° East  Level FlightAware Approximate
Wed 11:27:00 PM 53.1392 -44.8752 71° East  Level FlightAware Approximate
Wed 11:28:00 PM 53.1833 -44.6542 71° East  Level FlightAware Approximate
Wed 11:29:00 PM 53.2270 -44.4328 72° East  Level FlightAware Approximate
Wed 11:30:00 PM 53.2704 -44.2109 72° East  Level FlightAware Approximate
Wed 11:31:00 PM 53.3133 -43.9885 72° East  Level FlightAware Approximate
Wed 11:32:00 PM 53.3557 -43.7657 72° East  Level FlightAware Approximate
Wed 11:33:00 PM 53.3978 -43.5425 72° East  Level FlightAware Approximate
Wed 11:34:00 PM 53.4395 -43.3188 73° East  Level FlightAware Approximate
Wed 11:35:00 PM 53.4807 -43.0947 73° East  Level FlightAware Approximate
Wed 11:36:00 PM 53.5215 -42.8702 73° East  Level FlightAware Approximate
Wed 11:37:00 PM 53.5619 -42.6452 73° East  Level FlightAware Approximate
Wed 11:38:00 PM 53.6019 -42.4198 73° East  Level FlightAware Approximate
Wed 11:39:00 PM 53.6414 -42.1940 73° East  Level FlightAware Approximate
Wed 11:40:00 PM 53.6805 -41.9678 74° East  Level FlightAware Approximate
Wed 11:41:00 PM 53.7192 -41.7411 74° East  Level FlightAware Approximate
Wed 11:42:00 PM 53.7575 -41.5140 74° East  Level FlightAware Approximate
Wed 11:43:00 PM 53.7953 -41.2865 74° East  Level FlightAware Approximate
Wed 11:44:00 PM 53.8327 -41.0586 74° East  Level FlightAware Approximate
Wed 11:45:00 PM 53.8697 -40.8303 75° East  Level FlightAware Approximate
Wed 11:46:00 PM 53.9063 -40.6016 75° East  Level FlightAware Approximate
Wed 11:47:00 PM 53.9424 -40.3725 75° East  Level FlightAware Approximate
Wed 11:48:00 PM 53.9780 -40.1430 75° East  Level FlightAware Approximate
Wed 11:49:00 PM 52.3117 -48.7322 68° East  Level FlightAware Approximate
Wed 11:50:00 PM 52.3623 -48.5192 69° East  Level FlightAware Approximate
Wed 11:51:00 PM 52.4125 -48.3056 69° East  Level FlightAware Approximate
Wed 11:52:00 PM 52.4624 -48.0917 69° East  Level FlightAware Approximate
Wed 11:53:00 PM 52.5118 -47.8772 69° East  Level FlightAware Approximate
Wed 11:54:00 PM 52.5609 -47.6622 69° East  Level FlightAware Approximate
Wed 11:55:00 PM 52.6096 -47.4468 70° East  Level FlightAware Approximate
Wed 11:56:00 PM 52.6579 -47.2309 70° East  Level FlightAware Approximate
Wed 11:57:00 PM 52.7058 -47.0145 70° East  Level FlightAware Approximate
Wed 11:58:00 PM 52.7533 -46.7976 70° East  Level FlightAware Approximate
Wed 11:59:00 PM 52.8004 -46.5803 70° East  Level FlightAware Approximate
Thu 12:00:00 AM 52.8471 -46.3625 70° East  Level FlightAware Approximate
Thu 12:01:00 AM 52.8934 -46.1442 71° East  Level FlightAware Approximate
Thu 12:02:00 AM 52.9393 -45.9254 71° East  Level FlightAware Approximate
Thu 12:03:00 AM 52.9848 -45.7062 71° East  Level FlightAware Approximate
Thu 12:04:00 AM 53.0299 -45.4866 71° East  Level FlightAware Approximate
Thu 12:05:00 AM 53.0746 -45.2665 71° East  Level FlightAware Approximate
Thu 12:06:00 AM 53.1189 -45.0459 71° East  Level FlightAware Approximate
Thu 12:07:00 AM 53.1628 -44.8249 72° East  Level FlightAware Approximate
Thu 12:08:00 AM 53.2063 -44.6034 72° East  Level FlightAware Approximate
Thu 12:09:00 AM 53.2493 -44.3815 72° East  Level FlightAware Approximate
Thu 12:10:00 AM 53.2920 -44.1591 72° East  Level FlightAware Approximate
Thu 12:11:00 AM 53.3342 -43.9363 72° East  Level FlightAware Approximate
Thu 12:12:00 AM 53.3760 -43.7130 72° East  Level FlightAware Approximate
Thu 12:13:00 AM 53.4174 -43.4893 73° East  Level FlightAware Approximate
Thu 12:14:00 AM 53.4584 -43.2652 73° East  Level FlightAware Approximate
Thu 12:15:00 AM 53.4990 -43.0407 73° East  Level FlightAware Approximate
Thu 12:16:00 AM 53.5391 -42.8157 73° East  Level FlightAware Approximate
Thu 12:17:00 AM 53.5788 -42.5903 73° East  Level FlightAware Approximate
Thu 12:18:00 AM 53.6181 -42.3645 74° East  Level FlightAware Approximate
Thu 12:19:00 AM 53.6570 -42.1382 74° East  Level FlightAware Approximate
Thu 12:20:00 AM 53.6954 -41.9115 74° East  Level FlightAware Approximate
Thu 12:21:00 AM 53.7334 -41.6845 74° East  Level FlightAware Approximate
Thu 12:22:00 AM 53.7710 -41.4570 74° East  Level FlightAware Approximate
Thu 12:23:00 AM 53.8082 -41.2291 74° East  Level FlightAware Approximate
Thu 12:24:00 AM 53.8449 -41.0008 75° East  Level FlightAware Approximate
Thu 12:25:00 AM 53.8812 -40.7721 75° East  Level FlightAware Approximate
Thu 12:26:00 AM 53.9170 -40.5430 75° East  Level FlightAware Approximate
Thu 12:27:00 AM 53.9524 -40.3136 75° East  Level FlightAware Approximate
Thu 12:28:00 AM 53.9874 -40.0837 75° East  Level FlightAware Approximate
Thu 12:29:00 AM 54.0062 -39.8492 86° East  Level FlightAware Approximate
Thu 12:30:00 AM 54.0155 -39.6121 86° East  Level FlightAware Approximate
Thu 12:31:00 AM 54.0244 -39.3748 86° East  Level FlightAware Approximate
Thu 12:32:00 AM 54.0328 -39.1375 86° East  Level FlightAware Approximate
Thu 12:33:00 AM 54.0407 -38.9001 87° East  Level FlightAware Approximate
Thu 12:34:00 AM 54.0482 -38.6626 87° East  Level FlightAware Approximate
Thu 12:35:00 AM 54.0551 -38.4250 87° East  Level FlightAware Approximate
Thu 12:36:00 AM 54.0617 -38.1873 87° East  Level FlightAware Approximate
Thu 12:37:00 AM 54.0677 -37.9496 87° East  Level FlightAware Approximate
Thu 12:38:00 AM 54.0733 -37.7118 88° East  Level FlightAware Approximate
Thu 12:39:00 AM 54.0784 -37.4739 88° East  Level FlightAware Approximate
Thu 12:40:00 AM 54.0831 -37.2360 88° East  Level FlightAware Approximate
Thu 12:41:00 AM 54.0873 -36.9980 88° East  Level FlightAware Approximate
Thu 12:42:00 AM 54.0910 -36.7600 88° East  Level FlightAware Approximate
Thu 12:43:00 AM 54.0942 -36.5219 89° East  Level FlightAware Approximate
Thu 12:44:00 AM 54.0970 -36.2838 89° East  Level FlightAware Approximate
Thu 12:45:00 AM 54.0993 -36.0457 89° East  Level FlightAware Approximate
Thu 12:46:00 AM 54.1011 -35.8075 89° East  Level FlightAware Approximate
Thu 12:47:00 AM 54.1025 -35.5694 89° East  Level FlightAware Approximate
Thu 12:48:00 AM 54.1034 -35.3312 90° East  Level FlightAware Approximate
Thu 12:49:00 AM 54.1038 -35.0930 90° East  Level FlightAware Approximate
Thu 12:50:00 AM 54.1037 -34.8595 90° East  Level FlightAware Approximate
Thu 12:51:00 AM 54.1032 -34.6259 90° East  Level FlightAware Approximate
Thu 12:52:00 AM 54.1023 -34.3924 90° East  Level FlightAware Approximate
Thu 12:53:00 AM 54.1009 -34.1589 90° East  Level FlightAware Approximate
Thu 12:54:00 AM 54.0990 -33.9255 91° East  Level FlightAware Approximate
Thu 12:55:00 AM 54.0967 -33.6920 91° East  Level FlightAware Approximate
Thu 12:56:00 AM 54.0940 -33.4586 91° East  Level FlightAware Approximate
Thu 12:57:00 AM 54.0908 -33.2252 91° East  Level FlightAware Approximate
Thu 12:58:00 AM 54.0871 -32.9918 91° East  Level FlightAware Approximate
Thu 12:59:00 AM 54.0830 -32.7585 92° East  Level FlightAware Approximate
Thu 01:00:00 AM 54.0784 -32.5252 92° East  Level FlightAware Approximate
Thu 01:01:00 AM 54.0734 -32.2920 92° East  Level FlightAware Approximate
Thu 01:02:00 AM 54.0679 -32.0589 92° East  Level FlightAware Approximate
Thu 01:03:00 AM 54.0620 -31.8258 92° East  Level FlightAware Approximate
Thu 01:04:00 AM 54.0556 -31.5928 93° East  Level FlightAware Approximate
Thu 01:05:00 AM 54.0488 -31.3598 93° East  Level FlightAware Approximate
Thu 01:06:00 AM 54.0416 -31.1270 93° East  Level FlightAware Approximate
Thu 01:07:00 AM 54.0339 -30.8942 93° East  Level FlightAware Approximate
Thu 01:08:00 AM 54.0257 -30.6615 93° East  Level FlightAware Approximate
Thu 01:09:00 AM 54.0171 -30.4289 94° East  Level FlightAware Approximate
Thu 01:10:00 AM 54.0080 -30.1964 94° East  Level FlightAware Approximate
Thu 01:11:00 AM 53.9979 -29.9641 96° East  Level FlightAware Approximate
Thu 01:12:00 AM 53.9844 -29.7323 96° East  Level FlightAware Approximate
Thu 01:13:00 AM 53.9704 -29.5007 96° East  Level FlightAware Approximate
Thu 01:14:00 AM 53.9559 -29.2693 96° East  Level FlightAware Approximate
Thu 01:15:00 AM 53.9410 -29.0380 96° East  Level FlightAware Approximate
Thu 01:16:00 AM 53.9257 -28.8069 96° East  Level FlightAware Approximate
Thu 01:17:00 AM 53.9099 -28.5760 97° East  Level FlightAware Approximate
Thu 01:18:00 AM 53.8936 -28.3452 97° East  Level FlightAware Approximate
Thu 01:19:00 AM 53.8770 -28.1147 97° East  Level FlightAware Approximate
Thu 01:20:00 AM 53.8598 -27.8843 97° East  Level FlightAware Approximate
Thu 01:21:00 AM 53.8423 -27.6541 97° East  Level FlightAware Approximate
Thu 01:22:00 AM 53.8243 -27.4241 97° East  Level FlightAware Approximate
Thu 01:23:00 AM 53.8058 -27.1943 98° East  Level FlightAware Approximate
Thu 01:24:00 AM 53.7870 -26.9647 98° East  Level FlightAware Approximate
Thu 01:25:00 AM 53.7677 -26.7353 98° East  Level FlightAware Approximate
Thu 01:26:00 AM 53.7479 -26.5061 98° East  Level FlightAware Approximate
Thu 01:27:00 AM 53.7277 -26.2772 98° East  Level FlightAware Approximate
Thu 01:28:00 AM 53.7071 -26.0484 99° East  Level FlightAware Approximate
Thu 01:29:00 AM 53.6860 -25.8199 99° East  Level FlightAware Approximate
Thu 01:30:00 AM 53.6646 -25.5917 99° East  Level FlightAware Approximate
Thu 01:31:00 AM 53.6426 -25.3636 99° East  Level FlightAware Approximate
Thu 01:32:00 AM 53.6203 -25.1358 99° East  Level FlightAware Approximate
Thu 01:33:00 AM 53.5975 -24.9083 100° East  Level FlightAware Approximate
Thu 01:34:00 AM 53.5746 -24.6808 100° East  Level FlightAware Approximate
Thu 01:35:00 AM 53.5513 -24.4537 100° East  Level FlightAware Approximate
Thu 01:36:00 AM 53.5275 -24.2268 100° East  Level FlightAware Approximate
Thu 01:37:00 AM 53.5033 -24.0002 100° East  Level FlightAware Approximate
Thu 01:38:00 AM 53.4787 -23.7738 100° East  Level FlightAware Approximate
Thu 01:39:00 AM 53.4537 -23.5476 100° East  Level FlightAware Approximate
Thu 01:40:00 AM 53.4282 -23.3218 101° East  Level FlightAware Approximate
Thu 01:41:00 AM 53.4023 -23.0962 101° East  Level FlightAware Approximate
Thu 01:42:00 AM 53.3759 -22.8709 101° East  Level FlightAware Approximate
Thu 01:43:00 AM 53.3492 -22.6459 101° East  Level FlightAware Approximate
Thu 01:44:00 AM 53.3220 -22.4212 101° East  Level FlightAware Approximate
Thu 01:45:00 AM 53.2944 -22.1967 102° East  Level FlightAware Approximate
Thu 01:46:00 AM 53.2664 -21.9725 102° East  Level FlightAware Approximate
Thu 01:46:59 AM 52.6320 -12.6090 105° East 496 571 38,100  Level FlightAware ADS-B
Thu 01:47:00 AM 53.2380 -21.7487 102° East  Level FlightAware Approximate
Thu 01:47:39 AM 52.6140 -12.4580 101° East 501 577 38,700  Level FlightAware ADS-B
Thu 01:48:09 AM 52.6070 -12.3500 96° East 502 578 39,000 277 Climbing FlightAware ADS-B
Thu 01:48:44 AM 52.6000 -12.2120 95° East 502 578 39,000  Level FlightAware ADS-B
Thu 01:49:19 AM 52.5930 -12.0820 95° East 501 577 39,000  Level FlightAware ADS-B
Thu 01:49:54 AM 52.5850 -11.9480 96° East 502 578 39,000  Level FlightAware ADS-B
Thu 01:50:34 AM 52.5770 -11.8000 95° East 502 578 39,000  Level FlightAware ADS-B
Thu 01:51:03 AM 52.5710 -11.7000 96° East 502 578 39,000  Level FlightAware ADS-B
Thu 01:51:40 AM 52.5630 -11.5590 95° East 504 580 39,000  Level FlightAware ADS-B
Thu 01:52:19 AM 52.5530 -11.4000 96° East 506 582 39,000  Level FlightAware ADS-B
Thu 01:52:50 AM 52.5460 -11.2840 96° East 506 582 39,000  Level FlightAware ADS-B
Thu 01:53:24 AM 52.5380 -11.1550 96° East 507 583 39,000  Level FlightAware ADS-B
Thu 01:54:00 AM 52.5290 -11.0140 96° East 509 586 39,000  Level FlightAware ADS-B
Thu 01:54:39 AM 52.5200 -10.8630 96° East 510 587 39,000  Level FlightAware ADS-B
Thu 01:55:10 AM 52.5120 -10.7480 96° East 511 588 39,000  Level FlightAware ADS-B
Thu 01:55:44 AM 52.5030 -10.6130 96° East 512 589 39,000  Level FlightAware ADS-B
Thu 01:56:19 AM 52.4950 -10.4910 96° East 513 590 39,000  Level FlightAware ADS-B
Thu 01:57:03 AM 52.4830 -10.3140 96° East 513 590 39,000  Level FlightAware ADS-B
Thu 01:57:36 AM 52.4730 -10.1750 97° East 514 592 39,000  Level FlightAware ADS-B
Thu 01:58:11 AM 52.4640 -10.0420 96° East 514 592 39,000  Level FlightAware ADS-B
Thu 01:58:46 AM 52.4540 -9.9030 97° East 513 590 39,000  Level FlightAware ADS-B
Thu 01:59:22 AM 52.4440 -9.7680 97° East 514 592 39,000  Level FlightAware ADS-B
Thu 01:59:52 AM 52.4350 -9.6490 97° East 515 593 39,000  Level FlightAware ADS-B
Thu 02:00:42 AM 52.4200 -9.4570 97° East 517 595 39,000  Level FlightAware ADS-B
Thu 02:01:12 AM 52.4110 -9.3390 97° East 518 596 39,000  Level FlightAware ADS-B
Thu 02:01:47 AM 52.4010 -9.2040 97° East 518 596 39,000  Level FlightAware ADS-B
Thu 02:02:36 AM 52.3900 -9.0670 97° East 518 596 39,000  Level FlightAware ADS-B
Thu 02:03:12 AM 52.3750 -8.8790 97° East 518 596 39,000  Level FlightAware ADS-B
Thu 02:03:43 AM 52.3640 -8.7560 98° East 517 595 39,000  Level FlightAware ADS-B
Thu 02:04:18 AM 52.3540 -8.6330 98° East 515 593 39,000 -162 Level FlightAware ADS-B
Thu 02:04:20 AM 52.3520 -8.6090 98° East 1 1 38,900 -188 Descending FlightAware UK
Thu 02:04:50 AM 52.3424 -8.4940 98° East 1 1 38,900 176 Level FlightAware UK
Thu 02:04:54 AM 52.3420 -8.4850 98° East 508 585 39,000 150 Climbing FlightAware ADS-B
Thu 02:05:30 AM 52.3300 -8.3460 98° East 506 582 39,000  Level FlightAware ADS-B
Thu 02:06:06 AM 52.3180 -8.2120 98° East 505 581 39,000  Level FlightAware ADS-B
Thu 02:06:42 AM 52.3060 -8.0780 98° East 505 581 39,000  Level FlightAware ADS-B
Thu 02:07:18 AM 52.2940 -7.9390 98° East 505 581 39,000  Level FlightAware ADS-B
Thu 02:07:50 AM 52.2826 -7.8159 98° East 1 1 39,000  Level FlightAware UK
Thu 02:07:50 AM 52.2830 -7.8170 98° East 507 583 39,000  Level FlightAware ADS-B
Thu 02:08:20 AM 52.2723 -7.7026 98° East 1 1 39,000  Level FlightAware UK
Thu 02:08:26 AM 52.2700 -7.6820 98° East 509 586 39,000  Level FlightAware ADS-B
Thu 02:08:58 AM 52.2590 -7.5650 99° East 510 587 39,000  Level FlightAware ADS-B
Thu 02:09:36 AM 52.2450 -7.4180 99° East 512 589 39,000  Level FlightAware ADS-B
Thu 02:10:09 AM 52.2330 -7.2930 99° East 513 590 39,000  Level FlightAware ADS-B
Thu 02:10:45 AM 52.2210 -7.1580 98° East 514 592 39,000  Level FlightAware ADS-B
Thu 02:11:20 AM 52.2070 -7.0190 98° East 515 593 39,000  Level FlightAware ADS-B
Thu 02:11:21 AM 52.2070 -7.0163 98° East 476 548 39,000  Level FlightAware UK
Thu 02:11:51 AM 52.1956 -6.9014 98° East 478 550 39,000  Level FlightAware UK
Thu 02:11:56 AM 52.1930 -6.8830 98° East 517 595 39,000  Level FlightAware ADS-B
Thu 02:12:30 AM 52.1800 -6.7530 99° East 517 595 39,000  Level FlightAware ADS-B
Thu 02:13:08 AM 52.1660 -6.6080 99° East 518 596 39,000  Level FlightAware ADS-B
Thu 02:13:40 AM 52.1530 -6.4840 100° East 518 596 39,000  Level FlightAware ADS-B
Thu 02:14:16 AM 52.1390 -6.3470 99° East 518 596 39,000  Level FlightAware ADS-B
Thu 02:14:51 AM 52.1247 -6.2110 99° East 484 557 39,000  Level FlightAware UK
Thu 02:14:52 AM 52.1240 -6.2070 99° East 517 595 39,000  Level FlightAware ADS-B
Thu 02:15:24 AM 52.1120 -6.0870 99° East 518 596 39,000  Level FlightAware ADS-B
Thu 02:16:00 AM 52.0970 -5.9490 100° East 519 597 39,000  Level FlightAware ADS-B
Thu 02:16:36 AM 52.0820 -5.8080 100° East 521 600 39,000  Level FlightAware ADS-B
Thu 02:17:10 AM 52.0680 -5.6810 100° East 521 600 39,000  Level FlightAware ADS-B
Thu 02:17:46 AM 52.0530 -5.5390 100° East 522 601 39,000 -85 Level FlightAware ADS-B
Thu 02:18:21 AM 52.0380 -5.4042 100° East 480 552 38,900  Descending FlightAware UK
Thu 02:18:22 AM 52.0370 -5.3990 100° East 522 601 39,000 182 Climbing FlightAware ADS-B
Thu 02:18:54 AM 52.0230 -5.2760 100° East 521 600 39,000  Level FlightAware ADS-B
Thu 02:19:30 AM 52.0080 -5.1380 100° East 520 598 39,000  Level FlightAware ADS-B
Thu 02:20:07 AM 51.9920 -5.0010 101° East 519 597 39,000  Level FlightAware ADS-B
Thu 02:20:40 AM 51.9780 -4.8760 100° East 519 597 39,000  Level FlightAware ADS-B
Thu 02:21:16 AM 51.9620 -4.7370 101° East 519 597 39,000  Level FlightAware ADS-B
Thu 02:21:52 AM 51.9450 -4.5990 101° East 519 597 39,000  Level FlightAware ADS-B
Thu 02:22:24 AM 51.9310 -4.4780 101° East 519 597 39,000  Level FlightAware ADS-B
Thu 02:23:02 AM 51.9130 -4.3320 101° East 519 597 39,000  Level FlightAware ADS-B
Thu 02:23:38 AM 51.8940 -4.1970 103° East 512 589 39,000  Level FlightAware ADS-B
Thu 02:24:10 AM 51.8640 -4.0840 113° Southeast 508 585 39,000  Level FlightAware ADS-B
Thu 02:24:44 AM 51.8310 -3.9660 113° Southeast 509 586 39,000  Level FlightAware ADS-B
Thu 02:24:45 AM 51.8301 -3.9616 113° Southeast 472 543 39,000  Level FlightAware UK
Thu 02:25:15 AM 51.8011 -3.8578 113° Southeast 472 543 39,000  Level FlightAware UK
Thu 02:25:22 AM 51.7950 -3.8370 113° Southeast 511 588 39,000  Level FlightAware ADS-B
Thu 02:25:58 AM 51.7630 -3.7090 112° Southeast 519 597 39,000  Level FlightAware ADS-B
Thu 02:26:30 AM 51.7430 -3.5890 105° East 521 600 39,000  Level FlightAware ADS-B
Thu 02:27:03 AM 51.7215 -3.4620 105° East 478 550 39,000  Level FlightAware UK
Thu 02:27:06 AM 51.7200 -3.4540 105° East 521 600 39,000  Level FlightAware ADS-B
Thu 02:27:42 AM 51.6970 -3.3200 105° East 520 598 39,000  Level FlightAware ADS-B
Thu 02:28:10 AM 51.6810 -3.2151 104° East 524 603 39,000  Level FlightAware ADS-B
Thu 02:28:43 AM 51.6667 -3.0893 100° East 526 605 39,000  Level FlightAware ADS-B
Thu 02:29:13 AM 51.6553 -2.9707 99° East 527 606 39,000  Level FlightAware ADS-B
Thu 02:29:44 AM 51.6446 -2.8527 98° East 528 608 39,000  Level FlightAware ADS-B
Thu 02:30:14 AM 51.6341 -2.7357 98° East 528 608 39,000  Level FlightAware ADS-B
Thu 02:30:46 AM 51.6230 -2.6105 98° East 528 608 39,000  Level FlightAware ADS-B
Thu 02:31:19 AM 51.6116 -2.4823 98° East 527 606 39,000  Level FlightAware ADS-B
Thu 02:31:51 AM 51.6005 -2.3585 98° East 527 606 39,000  Level FlightAware ADS-B
Thu 02:32:22 AM 51.5898 -2.2398 98° East 528 608 39,000  Level FlightAware ADS-B
Thu 02:32:54 AM 51.5785 -2.1169 98° East 528 608 39,000  Level FlightAware ADS-B
Thu 02:33:24 AM 51.5674 -1.9986 99° East 528 608 39,000  Level FlightAware ADS-B
Thu 02:33:55 AM 51.5563 -1.8805 99° East 527 606 39,000  Level FlightAware ADS-B
Thu 02:34:26 AM 51.5452 -1.7640 99° East 527 606 39,000  Level FlightAware ADS-B
Thu 02:34:59 AM 51.5327 -1.6348 99° East 527 606 39,000  Level FlightAware ADS-B
Thu 02:35:29 AM 51.5212 -1.5173 99° East 526 605 39,000  Level FlightAware ADS-B
Thu 02:36:00 AM 51.5096 -1.3996 99° East 527 606 39,000  Level FlightAware ADS-B
Thu 02:36:31 AM 51.4978 -1.2815 99° East 527 606 39,000  Level FlightAware ADS-B
Thu 02:37:02 AM 51.4861 -1.1638 99° East 527 606 39,000  Level FlightAware ADS-B
Thu 02:37:33 AM 51.4758 -1.0419 98° East 527 606 39,000  Level FlightAware ADS-B
Thu 02:38:08 AM 51.4644 -0.9060 98° East 526 605 39,000  Level FlightAware ADS-B
Thu 02:38:44 AM 51.4526 -0.7689 98° East 524 603 39,000  Level FlightAware ADS-B
Thu 02:39:15 AM 51.4420 -0.6505 98° East 523 602 39,000  Level FlightAware ADS-B
Thu 02:39:45 AM 51.4313 -0.5336 98° East 523 602 39,000  Level FlightAware ADS-B
Thu 02:40:15 AM 51.4207 -0.4186 98° East 522 601 39,000  Level FlightAware ADS-B
Thu 02:40:48 AM 51.4094 -0.2979 98° East 520 598 39,000  Level FlightAware ADS-B
Thu 02:41:19 AM 51.3981 -0.1784 99° East 519 597 39,000  Level FlightAware ADS-B
Thu 02:41:57 AM 51.3844 -0.0343 99° East 517 595 39,000  Level FlightAware ADS-B
Thu 02:42:29 AM 51.3728 0.0861 99° East 516 594 39,000  Level FlightAware ADS-B
Thu 02:43:00 AM 51.3615 0.2020 99° East 515 593 39,000  Level FlightAware ADS-B
Thu 02:43:31 AM 51.3501 0.3175 99° East 514 592 39,000  Level FlightAware ADS-B
Thu 02:44:02 AM 51.3386 0.4327 99° East 514 592 39,000  Level FlightAware ADS-B
Thu 02:44:37 AM 51.3252 0.5660 99° East 514 592 39,000  Level FlightAware ADS-B
Thu 02:45:07 AM 51.3139 0.6778 99° East 513 590 39,000  Level FlightAware ADS-B
Thu 02:45:39 AM 51.3017 0.7974 99° East 513 590 39,000  Level FlightAware ADS-B
Thu 02:46:09 AM 51.2899 0.9102 99° East 513 590 39,000  Level FlightAware ADS-B
Thu 02:46:43 AM 51.2769 1.0352 99° East 512 589 39,000  Level FlightAware ADS-B
Thu 02:47:13 AM 51.2655 1.1451 99° East 470 541 39,000  Level FlightAware UK
Thu 02:47:20 AM 51.2622 1.1738 99° East 513 590 39,000  Level FlightAware ADS-B
Thu 02:48:00 AM 51.2462 1.3229 100° East 512 589 39,000  Level FlightAware ADS-B
Thu 02:48:32 AM 51.2330 1.4410 100° East 513 590 39,000  Level FlightAware ADS-B
Thu 02:49:09 AM 51.2190 1.5740 99° East 513 590 39,000  Level FlightAware ADS-B
Thu 02:49:44 AM 51.2040 1.7090 100° East 513 590 39,000  Level FlightAware ADS-B
Thu 02:50:17 AM 51.1890 1.8270 101° East 513 590 39,000  Level FlightAware ADS-B
Thu 02:50:53 AM 51.1710 1.9580 102° East 511 588 39,000  Level FlightAware ADS-B
Thu 02:51:28 AM 51.1510 2.0880 104° East 511 588 39,000  Level FlightAware ADS-B
Thu 02:52:05 AM 51.1290 2.2240 104° East 511 588 39,000  Level FlightAware ADS-B
Thu 02:52:37 AM 51.1100 2.3380 105° East 511 588 39,000  Level FlightAware ADS-B
Thu 02:53:12 AM 51.0890 2.4640 105° East 512 589 39,000  Level FlightAware ADS-B
Thu 02:53:45 AM 51.0700 2.5800 105° East 513 590 39,000  Level FlightAware ADS-B
Thu 02:54:24 AM 51.0460 2.7270 105° East 513 590 39,000  Level FlightAware ADS-B
Thu 02:54:54 AM 51.0310 2.8160 105° East 514 592 39,000  Level FlightAware ADS-B
Thu 02:55:33 AM 51.0040 2.9740 105° East 514 592 39,000  Level FlightAware ADS-B
Thu 02:56:08 AM 50.9760 3.1040 109° East 513 590 39,000  Level FlightAware ADS-B
Thu 02:56:45 AM 50.9480 3.2290 110° East 514 592 39,000  Level FlightAware ADS-B
Thu 02:57:23 AM 50.9160 3.3650 110° East 515 593 39,000 -150 Level FlightAware ADS-B
Thu 02:57:25 AM 50.9132 3.3769 110° East 472 543 38,900  Descending FlightAware UK
Thu 02:57:59 AM 50.8850 3.4940 111° Southeast 515 593 39,000 91 Climbing FlightAware ADS-B
Thu 02:58:31 AM 50.8590 3.6060 110° East 516 594 39,000  Level FlightAware ADS-B
Thu 02:59:09 AM 50.8290 3.7370 110° East 515 593 39,000  Level FlightAware ADS-B
Thu 02:59:46 AM 50.8000 3.8610 110° East 515 593 39,000  Level FlightAware ADS-B
Thu 03:00:16 AM 50.7760 3.9700 109° East 515 593 39,000  Level FlightAware ADS-B
Thu 03:00:50 AM 50.7530 4.0930 106° East 515 593 39,000  Level FlightAware ADS-B
Thu 03:01:24 AM 50.7280 4.2150 108° East 515 593 39,000  Level FlightAware ADS-B
Thu 03:01:56 AM 50.7060 4.3300 107° East 515 593 39,000  Level FlightAware ADS-B
Thu 03:02:20 AM 50.6920 4.4190 104° East 516 594 39,000  Level FlightAware ADS-B
Thu 03:03:18 AM 50.6590 4.6330 104° East 517 595 39,000  Level FlightAware ADS-B
Thu 03:03:50 AM 50.6420 4.7450 103° East 516 594 39,000 -353 Level FlightAware ADS-B
Thu 03:04:26 AM 50.6210 4.8800 104° East 510 587 38,600 -1,417 Descending FlightAware ADS-B
Thu 03:05:02 AM 50.6020 5.0060 103° East 504 580 37,300 -2,294 Descending FlightAware ADS-B
Thu 03:05:34 AM 50.5840 5.1180 104° East 506 582 36,000 -2,435 Descending FlightAware ADS-B
Thu 03:06:11 AM 50.5630 5.2560 103° East 513 590 34,500 -2,301 Descending FlightAware ADS-B
Thu 03:06:47 AM 50.5430 5.3900 103° East 519 597 33,200 -2,083 Descending FlightAware ADS-B
Thu 03:07:23 AM 50.5230 5.5200 104° East 521 600 32,000 -2,053 Descending FlightAware ADS-B
Thu 03:08:03 AM 50.5010 5.6650 103° East 523 602 30,600 -2,053 Descending FlightAware ADS-B
Thu 03:08:39 AM 50.4800 5.8000 104° East 514 592 29,400 -2,143 Descending FlightAware ADS-B
Thu 03:09:13 AM 50.4620 5.9160 104° East 493 567 28,100 -2,143 Descending FlightAware ADS-B
Thu 03:09:49 AM 50.4420 6.0430 104° East 484 557 26,900 -1,909 Descending FlightAware ADS-B
Thu 03:10:19 AM 50.4220 6.1430 107° East 477 549 26,000 -1,059 Descending FlightAware ADS-B
Thu 03:10:57 AM 50.3960 6.2670 108° East 472 543 25,700 -789 Descending FlightAware ADS-B
Thu 03:11:35 AM 50.3730 6.3910 106° East 471 542 25,000 -649 Descending FlightAware ADS-B
Thu 03:12:11 AM 50.3600 6.5140 99° East 471 542 24,900 -794 Descending FlightAware ADS-B
Thu 03:12:43 AM 50.3530 6.6140 96° East 459 528 24,100 -1,909 Descending FlightAware ADS-B
Thu 03:13:17 AM 50.3450 6.7270 96° East 452 520 22,800 -2,197 Descending FlightAware ADS-B
Thu 03:13:54 AM 50.3380 6.8370 96° East 437 503 21,500 -2,384 Descending FlightAware ADS-B
Thu 03:14:30 AM 50.3270 6.9510 99° East 432 497 19,900 -2,559 Descending FlightAware ADS-B
Thu 03:15:02 AM 50.3050 7.0510 109° East 416 479 18,600 -2,364 Descending FlightAware ADS-B
Thu 03:15:36 AM 50.2780 7.1400 115° Southeast 406 467 17,300 -2,314 Descending FlightAware ADS-B
Thu 03:16:12 AM 50.2490 7.2360 115° Southeast 397 457 15,900 -2,167 Descending FlightAware ADS-B
Thu 03:16:48 AM 50.2210 7.3280 115° Southeast 388 447 14,700 -2,083 Descending FlightAware ADS-B
Thu 03:17:24 AM 50.1940 7.4160 116° Southeast 363 418 13,400 -1,917 Descending FlightAware ADS-B
Thu 03:18:00 AM 50.1690 7.4990 115° Southeast 357 411 12,400 -1,588 Descending FlightAware ADS-B
Thu 03:18:32 AM 50.1460 7.5730 116° Southeast 353 406 11,600 -1,235 Descending FlightAware ADS-B
Thu 03:19:08 AM 50.1200 7.6560 116° Southeast 346 398 11,000 -500 Descending FlightAware ADS-B
Thu 03:19:44 AM 50.0900 7.7320 122° Southeast 345 397 11,000  Level FlightAware ADS-B
Thu 03:20:20 AM 50.0580 7.8050 124° Southeast 345 397 11,000  Level FlightAware ADS-B
Thu 03:20:56 AM 50.0250 7.8780 125° Southeast 345 397 11,000  Level FlightAware ADS-B
Thu 03:21:16 AM 50.0090 7.9190 121° Southeast 345 397 11,000  Level FlightAware ADS-B
Thu 03:21:32 AM 50.0030 7.9560 104° East 346 398 11,000  Level FlightAware ADS-B
Thu 03:22:04 AM 50.0140 8.0350 78° East 347 399 11,000  Level FlightAware ADS-B
Thu 03:22:40 AM 50.0340 8.1190 70° East 346 398 11,000  Level FlightAware ADS-B
Thu 03:23:16 AM 50.0550 8.2030 69° East 347 399 11,000  Level FlightAware ADS-B
Thu 03:23:50 AM 50.0750 8.2820 68° East 349 402 11,000  Level FlightAware ADS-B
Thu 03:24:22 AM 50.0930 8.3580 70° East 350 403 11,000  Level FlightAware ADS-B
Thu 03:24:58 AM 50.1130 8.4420 70° East 342 394 11,000  Level FlightAware ADS-B
Thu 03:25:36 AM 50.1320 8.5230 70° East 305 351 11,000  Level FlightAware ADS-B
Thu 03:26:08 AM 50.1470 8.5850 69° East 280 322 11,000 -91 Level FlightAware ADS-B
Thu 03:26:42 AM 50.1630 8.6500 69° East 274 315 10,900 -600 Descending FlightAware ADS-B
Thu 03:27:18 AM 50.1780 8.7170 71° East 271 312 10,300 -1,034 Descending FlightAware ADS-B
Thu 03:27:40 AM 50.1870 8.7530 69° East 269 310 9,900 -1,143 Descending FlightAware ADS-B
Thu 03:28:00 AM 50.1960 8.7920 70° East 268 308 9,500 -1,200 Descending FlightAware ADS-B
Thu 03:28:20 AM 50.2040 8.8270 70° East 266 306 9,100 -1,200 Descending FlightAware ADS-B
Thu 03:28:45 AM 50.2140 8.8700 70° East 262 302 8,600 -1,224 Descending FlightAware ADS-B
Thu 03:29:09 AM 50.2240 8.9100 69° East 262 302 8,100 -1,286 Descending FlightAware ADS-B
Thu 03:29:27 AM 50.2310 8.9420 71° East 261 300 7,700 -1,333 Descending FlightAware ADS-B
Thu 03:29:45 AM 50.2370 8.9680 70° East 260 299 7,300 -1,463 Descending FlightAware ADS-B
Thu 03:30:08 AM 50.2490 9.0160 69° East 256 295 6,700 -1,538 Descending FlightAware ADS-B
Thu 03:30:24 AM 50.2530 9.0390 75° East 255 293 6,300 -1,674 Descending FlightAware ADS-B
Thu 03:30:51 AM 50.2410 9.0920 109° East 246 283 5,500 -1,538 Descending FlightAware ADS-B
Thu 03:31:03 AM 50.2310 9.1050 140° Southeast 244 281 5,300 -1,200 Descending FlightAware ADS-B
Thu 03:31:11 AM 50.2240 9.1120 147° Southeast 242 278 5,100 -1,125 Descending FlightAware ADS-B
Thu 03:31:19 AM 50.2150 9.1150 168° South 239 275 5,000 -1,000 Descending FlightAware ADS-B
Thu 03:31:23 AM 50.2100 9.1150 180° South 238 274 4,900 -1,071 Descending FlightAware ADS-B
Thu 03:31:47 AM 50.1860 9.0990 203° Southwest 231 266 4,500 -1,167 Descending FlightAware ADS-B
Thu 03:31:59 AM 50.1790 9.0860 230° Southwest 232 267 4,200 -1,143 Descending FlightAware ADS-B
Thu 03:32:08 AM 50.1730 9.0730 234° Southwest 231 266 4,100 -643 Descending FlightAware ADS-B
Thu 03:32:27 AM 50.1650 9.0440 247° West 224 258 3,900 -308 Descending FlightAware ADS-B
Thu 03:32:47 AM 50.1590 9.0150 252° West 204 235 3,900  Level FlightAware ADS-B
Thu 03:33:03 AM 50.1550 8.9930 254° West 191 220 3,900  Level FlightAware ADS-B
Thu 03:33:23 AM 50.1490 8.9680 249° West 188 216 3,900  Level FlightAware ADS-B
Thu 03:33:43 AM 50.1420 8.9410 248° West 189 217 3,900  Level FlightAware ADS-B
Thu 03:34:01 AM 50.1370 8.9180 251° West 187 215 3,900  Level FlightAware ADS-B
Thu 03:34:21 AM 50.1310 8.8930 249° West 184 212 3,900  Level FlightAware ADS-B
Thu 03:34:41 AM 50.1260 8.8690 252° West 176 203 3,900  Level FlightAware ADS-B
Thu 03:35:05 AM 50.1190 8.8410 249° West 177 204 3,900  Level FlightAware ADS-B
Thu 03:35:25 AM 50.1130 8.8170 249° West 176 203 3,900 -300 Level FlightAware ADS-B
Thu 03:35:45 AM 50.1080 8.7940 251° West 176 203 3,700 -750 Descending FlightAware ADS-B
Thu 03:35:57 AM 50.1040 8.7790 247° West 180 207 3,500 -1,000 Descending FlightAware ADS-B
Thu 03:36:21 AM 50.0970 8.7490 250° West 180 207 3,100 -1,091 Descending FlightAware ADS-B
Thu 03:36:41 AM 50.0920 8.7260 251° West 180 207 2,700 -1,125 Descending FlightAware ADS-B
Thu 03:36:53 AM 50.0880 8.7110 247° West 180 207 2,500 -811 Descending FlightAware ADS-B
Thu 03:37:18 AM 50.0810 8.6820 249° West 176 203 2,200 -818 Descending FlightAware ADS-B
Thu 03:37:37 AM 50.0750 8.6580 249° West 175 201 1,900 -1,077 Descending FlightAware ADS-B
Thu 03:37:57 AM 50.0700 8.6350 251° West 161 185 1,500 -878 Descending FlightAware ADS-B
Thu 03:38:18 AM 50.0650 8.6150 249° West 143 165 1,300 -585 Descending FlightAware ADS-B
Thu 03:38:38 AM 50.0610 8.5960 252° West 142 163 1,100 -837 Descending FlightAware ADS-B
Thu 03:39:01 AM 50.0550 8.5720 249° West 143 165 700 -818 Descending FlightAware ADS-B
Thu 03:39:22 AM 50.0500 8.5520 249° West 142 163 500 -667 Descending FlightAware ADS-B
Thu 03:39:37 AM 50.0470 8.5370 253° West 143 165 300 -828 Descending FlightAware ADS-B
Thu 03:39:51 AM 50.0440 8.5240 250° West 143 165 100 -857 Descending FlightAware ADS-B

Login

Don't have an account? Register now (free) for customized features, flight alerts, and more!